aviador You're here:

KGTB Decoded Metar

FORT DRUM in NY, USA
Report Time2018-07-19 12:56:00
UTC Time2018-07-19 13:03:37
Flight Rules vfr VFR
Wind250° at 08 kt
W.Decomp.*RWY 26: 8.0 kt HW 0.4 kt RCW
RWY 21: 4.8 kt HW 6.4 kt RCW
RWY 33: 3.1 kt HW 7.4 kt LCW
W.Rank250° ranks 3
Current wind is below 250° avg. (8.6)
Visibility9999 m
Phenomena:N/A
Clouds:N/A
Expected CloudBase > 3,600 ft AGL from Temp-Dew spread
CeilingNone
Temp21°C (ISA +7)
Dew Point12°C (57% RH)
AAT18.8°C
QNH1020 hPa
Density Alt1,493 ft
Elevation679 ft
Report Wrong Elevation
Raw Report
KGTB 191256Z AUTO 25008KT 10SM CLR 21/12 A3011 RMK AO2 SLP195
T02070119=

Extra information for KGTB:More info

Metar Taf Metar & Taf Last 4 Metars F.Rules Stats Wind Profile Meteogram Temp Stats Airport Information Weather charts Add Link Nearby VenuesMetar ALERT Operation Metar Decoded Social comments

AIRNAV info for KGTB